Cannon AFB, New Mexico
Current Conditions -  °F | °C
As of 11:58 AM on Friday 21 Nov 2014 (Local Time) from KCVS Reporting Station
Clear Clear  
Wind Chill: 60°   Ceiling: Unl
Heat Index: 60°   Visibility: 10mi
Dew Point: 24°   Wind: 5mph
Humidity: 26%   Direction: 210°SSW
Pressure: 30"   Gusts: NA
Location:  34.38°N, 103.31°W
Report Text: KCVS 211858Z AUTO 21004KT 10SM CLR 15/M04 A3000 RMK AO2 SLP140 T01531043 $
Loading
Personal Weather Stations






























Interactive Weather Map New forecast layout! Learn more

10-Day Weather Forecast

Advertisements
Track Severe Weather on mobile